Terminal Aerodrome Forecast
Issued by NWS

Home | Current Version | Previous Version | Text Only | Print | Product List | Glossary Off
Versions: 1 2 3 4 5 6 7 8 9 10 11 12 13 14 15 16 17 18

897
FTUS43 KUNR 212320
TAFGCC
TAF
KGCC 212320Z 2200/2224 02012KT P6SM SKC
     FM220200 35006KT P6SM SCT120
     FM221100 36008KT P6SM BKN040=

USA.gov is the U.S. government's official web portal to all federal, state and local government web resources and services.